createdAt,value
2024-05-09T00:00:36.244Z,14.04
2024-05-09T00:01:36.265Z,14.11
2024-05-09T00:02:33.028Z,14.23
2024-05-09T00:03:29.889Z,14.25
2024-05-09T00:04:26.641Z,14.14
2024-05-09T00:05:23.574Z,14.16
2024-05-09T00:06:20.326Z,14.22
2024-05-09T00:07:17.100Z,14.18
2024-05-09T00:08:14.051Z,14.17
2024-05-09T00:09:10.914Z,14.15
2024-05-09T00:10:11.800Z,14.14
2024-05-09T00:11:16.474Z,14.20
2024-05-09T00:12:13.768Z,14.20
2024-05-09T00:13:11.246Z,14.02
2024-05-09T00:14:08.311Z,14.22
2024-05-09T00:15:05.530Z,14.08
2024-05-09T00:16:02.314Z,14.07
2024-05-09T00:16:59.041Z,14.01
2024-05-09T00:17:55.937Z,13.92
2024-05-09T00:18:52.773Z,13.93
2024-05-09T00:19:49.630Z,13.90
2024-05-09T00:20:46.444Z,13.90
2024-05-09T00:21:43.710Z,14.08
2024-05-09T00:22:40.413Z,14.21
2024-05-09T00:23:37.142Z,14.02
2024-05-09T00:24:33.860Z,14.11
2024-05-09T00:25:30.529Z,14.25
2024-05-09T00:26:27.367Z,14.37
2024-05-09T00:27:24.293Z,14.23
2024-05-09T00:28:21.160Z,14.37
2024-05-09T00:29:17.950Z,14.23
2024-05-09T00:30:23.995Z,14.20
2024-05-09T00:31:27.402Z,14.05
2024-05-09T00:32:24.264Z,14.00
2024-05-09T00:33:21.497Z,14.14
2024-05-09T00:34:18.556Z,14.29
2024-05-09T00:35:15.403Z,14.44
2024-05-09T00:36:12.140Z,14.32
2024-05-09T00:37:08.876Z,14.04
2024-05-09T00:38:05.840Z,14.03
2024-05-09T00:39:02.647Z,13.97
2024-05-09T00:39:59.355Z,13.96
2024-05-09T00:40:56.115Z,14.06
2024-05-09T00:41:52.849Z,13.92
2024-05-09T00:42:49.565Z,13.97
2024-05-09T00:43:46.321Z,14.05
2024-05-09T00:44:43.016Z,14.10
2024-05-09T00:45:39.693Z,14.07
2024-05-09T00:46:36.455Z,14.02
2024-05-09T00:47:34.285Z,14.11
2024-05-09T00:48:31.909Z,14.04
2024-05-09T00:49:29.208Z,14.01
2024-05-09T00:50:34.050Z,14.23
2024-05-09T00:51:33.612Z,14.20
2024-05-09T00:52:30.760Z,13.86
2024-05-09T00:53:28.157Z,13.84
2024-05-09T00:54:26.255Z,14.00
2024-05-09T00:55:24.032Z,14.11
2024-05-09T00:56:22.028Z,14.16
2024-05-09T00:57:18.849Z,13.92
2024-05-09T00:58:18.317Z,13.88
2024-05-09T00:59:15.903Z,14.06
2024-05-09T01:00:22.549Z,13.98
2024-05-09T01:01:28.375Z,13.86
2024-05-09T01:02:25.263Z,13.83
2024-05-09T01:03:22.600Z,13.74
2024-05-09T01:04:19.606Z,13.81
2024-05-09T01:05:16.495Z,13.80
2024-05-09T01:06:13.265Z,13.84
2024-05-09T01:07:11.276Z,13.85
2024-05-09T01:08:09.258Z,13.97
2024-05-09T01:09:06.368Z,13.85
2024-05-09T01:10:04.219Z,13.78
2024-05-09T01:11:02.375Z,13.86
2024-05-09T01:11:59.335Z,13.84
2024-05-09T01:12:56.137Z,13.59
2024-05-09T01:13:52.950Z,13.80
2024-05-09T01:14:49.666Z,13.83
2024-05-09T01:15:48.178Z,13.82
2024-05-09T01:16:45.143Z,13.89
2024-05-09T01:17:42.384Z,13.92
2024-05-09T01:18:39.645Z,13.80
2024-05-09T01:19:36.774Z,13.92
2024-05-09T01:20:41.037Z,13.89
2024-05-09T01:21:41.665Z,13.78
2024-05-09T01:22:39.430Z,13.87
2024-05-09T01:23:36.547Z,13.94
2024-05-09T01:24:33.672Z,13.86
2024-05-09T01:25:30.437Z,13.91
2024-05-09T01:26:27.175Z,13.91
2024-05-09T01:27:24.039Z,13.81
2024-05-09T01:28:20.743Z,13.92
2024-05-09T01:29:17.647Z,13.79
2024-05-09T01:30:17.460Z,13.85
2024-05-09T01:31:18.093Z,13.89
2024-05-09T01:32:14.939Z,14.07
2024-05-09T01:33:12.775Z,13.78
2024-05-09T01:34:10.162Z,13.72
2024-05-09T01:35:07.180Z,13.63
2024-05-09T01:36:04.137Z,13.61
2024-05-09T01:37:00.837Z,13.43
2024-05-09T01:37:57.605Z,13.22
2024-05-09T01:38:54.431Z,13.21
2024-05-09T01:39:51.287Z,13.29
2024-05-09T01:40:48.710Z,13.38
2024-05-09T01:41:45.424Z,13.55
2024-05-09T01:42:42.272Z,13.41
2024-05-09T01:43:39.001Z,13.08
2024-05-09T01:44:35.731Z,13.17
2024-05-09T01:45:32.441Z,13.24
2024-05-09T01:46:29.144Z,13.14
2024-05-09T01:47:26.084Z,13.11
2024-05-09T01:48:23.082Z,13.28
2024-05-09T01:49:20.052Z,13.46
2024-05-09T01:50:22.470Z,13.40
2024-05-09T01:51:25.559Z,13.14
2024-05-09T01:52:22.274Z,13.31
2024-05-09T01:53:19.074Z,13.23
2024-05-09T01:54:15.841Z,13.38
2024-05-09T01:55:12.557Z,13.51
2024-05-09T01:56:10.266Z,13.51
2024-05-09T01:57:07.007Z,13.28
2024-05-09T01:58:03.867Z,13.46
2024-05-09T01:59:01.980Z,13.38
2024-05-09T01:59:58.729Z,13.27
2024-05-09T02:00:55.571Z,13.23
2024-05-09T02:01:56.866Z,13.17
2024-05-09T02:02:54.714Z,13.27
2024-05-09T02:03:51.780Z,13.27
2024-05-09T02:04:50.063Z,13.33
2024-05-09T02:05:48.308Z,13.47
2024-05-09T02:06:45.226Z,13.52
2024-05-09T02:07:41.922Z,13.52
2024-05-09T02:08:38.783Z,13.40
2024-05-09T02:09:35.568Z,13.48
2024-05-09T02:10:33.408Z,13.46
2024-05-09T02:11:30.512Z,13.43
2024-05-09T02:12:27.252Z,13.47
2024-05-09T02:13:23.974Z,13.49
2024-05-09T02:14:20.908Z,13.53
2024-05-09T02:15:17.665Z,13.49
2024-05-09T02:16:14.618Z,13.55
2024-05-09T02:17:11.365Z,13.60
2024-05-09T02:18:09.164Z,13.46
2024-05-09T02:19:06.430Z,13.50
2024-05-09T02:20:03.690Z,13.50
2024-05-09T02:21:02.704Z,13.48
2024-05-09T02:21:59.445Z,13.29
2024-05-09T02:22:57.605Z,13.34
2024-05-09T02:23:54.418Z,13.20
2024-05-09T02:24:51.211Z,12.93
2024-05-09T02:25:47.946Z,12.97
2024-05-09T02:26:44.669Z,13.06
2024-05-09T02:27:42.359Z,13.12
2024-05-09T02:28:39.030Z,13.09
2024-05-09T02:29:35.768Z,12.96
2024-05-09T02:30:39.444Z,12.77
2024-05-09T02:31:38.265Z,13.01
2024-05-09T02:32:35.104Z,12.84
2024-05-09T02:33:32.167Z,12.92
2024-05-09T02:34:29.053Z,12.78
2024-05-09T02:35:26.863Z,12.75
2024-05-09T02:36:23.638Z,12.89
2024-05-09T02:37:20.342Z,12.74
2024-05-09T02:38:17.326Z,13.05
2024-05-09T02:39:14.052Z,13.03
2024-05-09T02:40:14.724Z,13.25
2024-05-09T02:41:14.846Z,13.02
2024-05-09T02:42:11.587Z,12.88
2024-05-09T02:43:10.287Z,12.91
2024-05-09T02:44:08.133Z,12.99
2024-05-09T02:45:05.365Z,13.10
2024-05-09T02:46:02.029Z,13.11
2024-05-09T02:46:58.737Z,13.06
2024-05-09T02:47:55.707Z,13.08
2024-05-09T02:48:52.646Z,13.07
2024-05-09T02:49:49.401Z,13.05
2024-05-09T02:50:46.272Z,13.13
2024-05-09T02:51:43.029Z,13.13
2024-05-09T02:52:39.739Z,13.16
2024-05-09T02:53:36.456Z,13.35
2024-05-09T02:54:33.198Z,13.46
2024-05-09T02:55:29.866Z,13.30
2024-05-09T02:56:26.662Z,13.37
2024-05-09T02:57:23.424Z,13.33
2024-05-09T02:58:20.149Z,13.38
2024-05-09T02:59:16.884Z,13.22
2024-05-09T03:00:19.058Z,12.98
2024-05-09T03:01:22.753Z,13.25
2024-05-09T03:02:19.731Z,13.37
2024-05-09T03:03:16.639Z,13.07
2024-05-09T03:04:13.569Z,13.13
2024-05-09T03:05:10.962Z,13.18
2024-05-09T03:06:07.715Z,13.17
2024-05-09T03:07:04.681Z,13.17
2024-05-09T03:08:01.537Z,13.18
2024-05-09T03:08:58.403Z,13.22
2024-05-09T03:09:55.089Z,13.20
2024-05-09T03:10:51.826Z,13.27
2024-05-09T03:11:48.704Z,13.31
2024-05-09T03:12:45.525Z,13.07
2024-05-09T03:13:42.215Z,13.14
2024-05-09T03:14:38.895Z,13.14
2024-05-09T03:15:35.799Z,13.20
2024-05-09T03:16:37.976Z,13.26
2024-05-09T03:17:34.946Z,13.29
2024-05-09T03:18:31.923Z,13.20
2024-05-09T03:19:28.718Z,13.15
2024-05-09T03:20:32.517Z,13.17
2024-05-09T03:21:31.566Z,13.03
2024-05-09T03:22:28.693Z,12.93
2024-05-09T03:23:25.418Z,12.86
2024-05-09T03:24:22.137Z,12.84
2024-05-09T03:25:18.810Z,12.85
2024-05-09T03:26:17.472Z,12.76
2024-05-09T03:27:14.208Z,12.71
2024-05-09T03:28:11.431Z,12.68
2024-05-09T03:29:08.325Z,12.80
2024-05-09T03:30:07.441Z,13.01
2024-05-09T03:31:04.408Z,13.08
2024-05-09T03:32:01.246Z,13.03
2024-05-09T03:32:58.124Z,12.95
2024-05-09T03:33:54.999Z,13.08
2024-05-09T03:34:51.763Z,13.13
2024-05-09T03:35:49.311Z,13.16
2024-05-09T03:36:46.541Z,13.03
2024-05-09T03:37:43.229Z,12.97
2024-05-09T03:38:40.100Z,12.85
2024-05-09T03:39:36.796Z,12.81
2024-05-09T03:40:33.473Z,12.72
2024-05-09T03:41:30.204Z,12.80
2024-05-09T03:42:26.951Z,12.83
2024-05-09T03:43:24.091Z,13.00
2024-05-09T03:44:20.868Z,13.05
2024-05-09T03:45:17.614Z,13.18
2024-05-09T03:46:14.365Z,13.21
2024-05-09T03:47:11.173Z,13.23
2024-05-09T03:48:08.467Z,13.22
2024-05-09T03:49:05.755Z,13.29
2024-05-09T03:50:03.316Z,13.24
2024-05-09T03:51:01.279Z,13.31
2024-05-09T03:51:58.004Z,13.22
2024-05-09T03:52:55.142Z,13.10
2024-05-09T03:53:51.909Z,12.80
2024-05-09T03:54:48.576Z,12.59
2024-05-09T03:55:45.452Z,12.59
2024-05-09T03:56:42.299Z,12.66
2024-05-09T03:57:39.074Z,12.82
2024-05-09T03:58:35.797Z,13.02
2024-05-09T03:59:32.604Z,12.96
2024-05-09T04:00:36.905Z,12.83
2024-05-09T04:01:35.770Z,12.76
2024-05-09T04:02:32.715Z,12.69
2024-05-09T04:03:29.745Z,12.65
2024-05-09T04:04:26.549Z,12.62
2024-05-09T04:05:23.605Z,12.62
2024-05-09T04:06:23.014Z,12.63
2024-05-09T04:07:19.715Z,12.74
2024-05-09T04:08:18.990Z,12.85
2024-05-09T04:09:15.738Z,12.77
2024-05-09T04:10:21.015Z,12.76
2024-05-09T04:11:24.645Z,12.66
2024-05-09T04:12:21.496Z,12.58
2024-05-09T04:13:18.231Z,12.52
2024-05-09T04:14:15.036Z,12.48
2024-05-09T04:15:13.627Z,12.55
2024-05-09T04:16:11.386Z,12.44
2024-05-09T04:17:08.170Z,12.56
2024-05-09T04:18:05.387Z,12.67
2024-05-09T04:19:02.488Z,12.73
2024-05-09T04:19:59.299Z,12.88
2024-05-09T04:20:56.868Z,13.02
2024-05-09T04:21:53.621Z,12.95
2024-05-09T04:22:50.333Z,13.11
2024-05-09T04:23:47.114Z,13.32
2024-05-09T04:24:43.852Z,13.21
2024-05-09T04:25:42.066Z,13.18
2024-05-09T04:26:38.812Z,13.10
2024-05-09T04:27:35.550Z,12.96
2024-05-09T04:28:32.228Z,13.25
2024-05-09T04:29:29.055Z,13.29
2024-05-09T04:30:34.671Z,13.27
2024-05-09T04:31:38.708Z,13.08
2024-05-09T04:32:35.541Z,12.98
2024-05-09T04:33:32.911Z,12.92
2024-05-09T04:34:29.814Z,13.14
2024-05-09T04:35:26.732Z,13.24
2024-05-09T04:36:23.517Z,13.02
2024-05-09T04:37:20.221Z,13.16
2024-05-09T04:38:16.955Z,13.32
2024-05-09T04:39:13.674Z,13.27
2024-05-09T04:40:20.516Z,13.40
2024-05-09T04:41:21.048Z,13.45
2024-05-09T04:42:17.800Z,13.49
2024-05-09T04:43:17.362Z,13.65
2024-05-09T04:44:14.340Z,13.57
2024-05-09T04:45:11.048Z,13.60
2024-05-09T04:46:07.728Z,13.62
2024-05-09T04:47:04.702Z,13.72
2024-05-09T04:48:02.166Z,13.78
2024-05-09T04:48:59.268Z,13.77
2024-05-09T04:49:56.070Z,13.65
2024-05-09T04:50:52.933Z,13.67
2024-05-09T04:51:49.681Z,13.76
2024-05-09T04:52:46.483Z,13.63
2024-05-09T04:53:43.233Z,13.72
2024-05-09T04:54:39.980Z,13.76
2024-05-09T04:55:36.895Z,13.74
2024-05-09T04:56:33.965Z,13.90
2024-05-09T04:57:30.765Z,13.85
2024-05-09T04:58:27.466Z,13.88
2024-05-09T04:59:24.380Z,13.91
2024-05-09T05:00:28.936Z,14.00
2024-05-09T05:01:32.219Z,13.89
2024-05-09T05:02:29.003Z,13.88
2024-05-09T05:03:25.922Z,13.90
2024-05-09T05:04:22.806Z,14.01
2024-05-09T05:05:19.756Z,13.89
2024-05-09T05:06:16.539Z,13.97
2024-05-09T05:07:13.276Z,13.72
2024-05-09T05:08:13.790Z,13.49
2024-05-09T05:09:10.912Z,13.63
2024-05-09T05:10:11.839Z,13.71
2024-05-09T05:11:14.537Z,13.86
2024-05-09T05:12:31.317Z,13.84
2024-05-09T05:13:32.167Z,13.97
2024-05-09T05:14:29.111Z,13.99
2024-05-09T05:15:25.930Z,14.00
2024-05-09T05:16:22.635Z,13.97
2024-05-09T05:17:19.520Z,13.94
2024-05-09T05:18:16.820Z,13.87
2024-05-09T05:19:16.924Z,13.88
2024-05-09T05:20:17.962Z,14.03
2024-05-09T05:21:20.988Z,14.16
2024-05-09T05:22:17.871Z,14.11
2024-05-09T05:23:16.499Z,14.10
2024-05-09T05:24:13.541Z,14.19
2024-05-09T05:25:10.501Z,14.22
2024-05-09T05:26:07.218Z,14.24
2024-05-09T05:27:04.150Z,14.12
2024-05-09T05:28:00.827Z,14.19
2024-05-09T05:28:57.605Z,14.17
2024-05-09T05:29:54.299Z,14.18
2024-05-09T05:30:51.049Z,14.16
2024-05-09T05:31:47.891Z,14.20
2024-05-09T05:32:44.856Z,14.21
2024-05-09T05:33:41.794Z,13.99
2024-05-09T05:34:38.568Z,14.06
2024-05-09T05:35:36.026Z,14.14
2024-05-09T05:36:32.673Z,14.02
2024-05-09T05:37:29.406Z,14.01
2024-05-09T05:38:28.218Z,14.05
2024-05-09T05:39:25.340Z,14.01
2024-05-09T05:40:28.619Z,14.06
2024-05-09T05:41:32.562Z,14.14
2024-05-09T05:42:29.344Z,14.20
2024-05-09T05:43:26.764Z,14.13
2024-05-09T05:44:23.531Z,14.33
2024-05-09T05:45:20.280Z,14.33
2024-05-09T05:46:16.975Z,14.31
2024-05-09T05:47:13.822Z,14.27
2024-05-09T05:48:10.959Z,14.43
2024-05-09T05:49:07.986Z,14.40
2024-05-09T05:50:09.359Z,14.43
2024-05-09T05:51:11.226Z,14.56
2024-05-09T05:52:07.973Z,14.59
2024-05-09T05:53:08.503Z,14.76
2024-05-09T05:54:05.775Z,14.91
2024-05-09T05:55:04.768Z,14.84
2024-05-09T05:56:01.910Z,14.79
2024-05-09T05:56:59.315Z,14.74
2024-05-09T05:57:56.044Z,14.81
2024-05-09T05:58:52.847Z,14.79
2024-05-09T05:59:49.610Z,14.63
2024-05-09T06:00:46.397Z,14.77
2024-05-09T06:01:43.163Z,14.94
2024-05-09T06:02:39.929Z,14.86
2024-05-09T06:03:36.849Z,14.90
2024-05-09T06:04:33.783Z,14.96
2024-05-09T06:05:30.540Z,15.11
2024-05-09T06:06:27.291Z,15.11
2024-05-09T06:07:24.004Z,15.02
2024-05-09T06:08:21.031Z,15.05
2024-05-09T06:09:17.791Z,15.28
2024-05-09T06:10:21.269Z,14.98
2024-05-09T06:11:22.463Z,15.42
2024-05-09T06:12:19.404Z,15.31
2024-05-09T06:13:16.224Z,15.29
2024-05-09T06:14:13.146Z,15.26
2024-05-09T06:15:09.846Z,15.35
2024-05-09T06:16:06.744Z,15.37
2024-05-09T06:17:06.694Z,15.48
2024-05-09T06:18:06.486Z,15.46
2024-05-09T06:19:03.760Z,15.44
2024-05-09T06:20:00.635Z,15.49
2024-05-09T06:20:57.430Z,15.46
2024-05-09T06:21:54.183Z,15.50
2024-05-09T06:22:50.940Z,15.54
2024-05-09T06:23:48.762Z,15.61
2024-05-09T06:24:45.649Z,15.65
2024-05-09T06:25:42.754Z,15.48
2024-05-09T06:26:43.101Z,15.50
2024-05-09T06:27:40.272Z,15.43
2024-05-09T06:28:37.013Z,15.26
2024-05-09T06:29:38.432Z,14.98
2024-05-09T06:30:42.140Z,14.90
2024-05-09T06:31:41.648Z,15.34
2024-05-09T06:32:38.587Z,15.59
2024-05-09T06:33:35.635Z,15.44
2024-05-09T06:34:32.851Z,15.37
2024-05-09T06:35:29.703Z,15.38
2024-05-09T06:36:26.427Z,15.51
2024-05-09T06:37:23.144Z,15.48
2024-05-09T06:38:19.856Z,15.47
2024-05-09T06:39:16.590Z,15.58
2024-05-09T06:40:17.341Z,15.43
2024-05-09T06:41:14.431Z,15.59
2024-05-09T06:42:11.128Z,15.67
2024-05-09T06:43:16.415Z,15.81
2024-05-09T06:44:15.235Z,15.63
2024-05-09T06:45:11.970Z,15.82
2024-05-09T06:46:08.698Z,15.79
2024-05-09T06:47:05.556Z,15.97
2024-05-09T06:48:05.026Z,16.06
2024-05-09T06:49:08.086Z,16.12
2024-05-09T06:50:08.345Z,16.16
2024-05-09T06:51:09.951Z,16.04
2024-05-09T06:52:06.747Z,15.91
2024-05-09T06:53:03.632Z,15.98
2024-05-09T06:54:00.364Z,15.93
2024-05-09T06:54:57.042Z,16.31
2024-05-09T06:55:53.882Z,16.22
2024-05-09T06:56:50.683Z,16.31
2024-05-09T06:57:47.385Z,16.08
2024-05-09T06:58:44.110Z,16.05
2024-05-09T06:59:40.835Z,16.21
2024-05-09T07:00:40.349Z,16.08
2024-05-09T07:01:38.542Z,16.14
2024-05-09T07:02:35.340Z,16.01
2024-05-09T07:03:32.831Z,15.94
2024-05-09T07:04:29.716Z,15.28
2024-05-09T07:05:26.736Z,15.27
2024-05-09T07:06:23.556Z,15.15
2024-05-09T07:07:20.319Z,14.90
2024-05-09T07:08:17.774Z,14.66
2024-05-09T07:09:14.625Z,15.07
2024-05-09T07:10:21.560Z,15.42
2024-05-09T07:11:22.433Z,15.87
2024-05-09T07:12:19.359Z,15.44
2024-05-09T07:13:16.343Z,15.05
2024-05-09T07:14:13.239Z,15.30
2024-05-09T07:15:09.972Z,15.29
2024-05-09T07:16:06.924Z,15.09
2024-05-09T07:17:04.054Z,15.29
2024-05-09T07:18:01.065Z,15.48
2024-05-09T07:18:58.242Z,15.49
2024-05-09T07:19:55.099Z,15.61
2024-05-09T07:20:51.975Z,15.46
2024-05-09T07:21:49.002Z,15.02
2024-05-09T07:22:45.699Z,14.97
2024-05-09T07:23:45.184Z,15.01
2024-05-09T07:24:42.853Z,15.34
2024-05-09T07:25:40.531Z,14.93
2024-05-09T07:26:37.300Z,15.00
2024-05-09T07:27:34.541Z,15.21
2024-05-09T07:28:31.317Z,15.37
2024-05-09T07:29:28.200Z,15.43
2024-05-09T07:30:32.683Z,15.20
2024-05-09T07:31:31.491Z,14.96
2024-05-09T07:32:28.386Z,14.71
2024-05-09T07:33:25.396Z,14.94
2024-05-09T07:34:22.485Z,15.60
2024-05-09T07:35:19.447Z,15.15
2024-05-09T07:36:16.244Z,14.81
2024-05-09T07:37:13.837Z,15.06
2024-05-09T07:38:10.655Z,15.52
2024-05-09T07:39:07.429Z,15.51
2024-05-09T07:40:07.473Z,15.83
2024-05-09T07:41:04.805Z,16.02
2024-05-09T07:42:01.508Z,16.04
2024-05-09T07:42:58.229Z,15.89
2024-05-09T07:43:54.954Z,15.89
2024-05-09T07:44:51.733Z,15.85
2024-05-09T07:45:53.279Z,15.95
2024-05-09T07:48:13.585Z,16.11
2024-05-09T07:49:44.645Z,16.05
2024-05-09T07:53:32.304Z,16.16
2024-05-09T07:53:47.896Z,16.12
2024-05-09T07:54:48.117Z,16.11
2024-05-09T07:55:45.078Z,16.00
2024-05-09T07:56:41.995Z,16.20
2024-05-09T07:57:38.791Z,16.29
2024-05-09T07:58:35.646Z,16.26
2024-05-09T07:59:36.086Z,16.07
2024-05-09T08:00:34.592Z,16.12
2024-05-09T08:01:31.629Z,16.15
2024-05-09T08:02:28.784Z,16.09
2024-05-09T08:03:25.666Z,16.04
2024-05-09T08:04:25.100Z,16.10
2024-05-09T08:05:23.264Z,15.90
2024-05-09T08:06:20.097Z,15.28
2024-05-09T08:07:17.875Z,15.75
2024-05-09T08:08:14.607Z,15.71
2024-05-09T08:09:16.730Z,15.93
2024-05-09T08:10:21.923Z,15.73
2024-05-09T08:11:21.598Z,15.87
2024-05-09T08:12:18.367Z,15.52
2024-05-09T08:13:15.146Z,15.44
2024-05-09T08:14:11.886Z,15.36
2024-05-09T08:15:08.593Z,15.86
2024-05-09T08:16:05.779Z,15.63
2024-05-09T08:17:02.601Z,15.60
2024-05-09T08:18:00.186Z,15.49
2024-05-09T08:18:57.143Z,15.06
2024-05-09T08:19:55.489Z,15.27
2024-05-09T08:20:52.356Z,15.62
2024-05-09T08:21:49.105Z,15.31
2024-05-09T08:22:46.350Z,15.19
2024-05-09T08:23:43.027Z,15.21
2024-05-09T08:24:39.856Z,15.13
2024-05-09T08:25:36.625Z,15.06
2024-05-09T08:26:33.393Z,14.28
2024-05-09T08:27:30.972Z,14.49
2024-05-09T08:28:27.990Z,14.34
2024-05-09T08:29:24.813Z,14.65
2024-05-09T08:30:25.338Z,14.21
2024-05-09T08:31:29.474Z,14.38
2024-05-09T08:32:27.517Z,14.60
2024-05-09T08:33:24.454Z,14.27
2024-05-09T08:34:21.332Z,14.05
2024-05-09T08:35:18.073Z,14.10
2024-05-09T08:36:15.136Z,14.26
2024-05-09T08:37:19.420Z,14.04
2024-05-09T08:38:18.737Z,14.27
2024-05-09T08:39:15.441Z,14.07
2024-05-09T08:40:23.482Z,13.82
2024-05-09T08:41:24.995Z,14.35
2024-05-09T08:42:23.413Z,14.67
2024-05-09T08:43:20.745Z,14.82
2024-05-09T08:44:21.169Z,14.94
2024-05-09T08:45:18.562Z,14.91
2024-05-09T08:46:15.748Z,14.73
2024-05-09T08:47:12.597Z,14.53
2024-05-09T08:48:12.050Z,14.77
2024-05-09T08:49:09.297Z,14.62
2024-05-09T08:50:13.560Z,14.98
2024-05-09T08:51:14.455Z,14.92
2024-05-09T08:52:11.213Z,14.97
2024-05-09T08:53:08.771Z,15.04
2024-05-09T08:54:05.771Z,14.84
2024-05-09T08:55:03.362Z,15.02
2024-05-09T08:56:02.489Z,14.93
2024-05-09T08:57:00.593Z,15.09
2024-05-09T08:57:58.333Z,14.63
2024-05-09T08:58:59.076Z,14.78
2024-05-09T08:59:59.707Z,15.11
2024-05-09T09:00:57.622Z,15.11
2024-05-09T09:01:55.481Z,15.04
2024-05-09T09:02:52.361Z,15.05
2024-05-09T09:03:50.390Z,15.20
2024-05-09T09:05:11.408Z,15.11
2024-05-09T09:06:14.640Z,15.30
2024-05-09T09:07:11.950Z,15.21
2024-05-09T09:08:08.978Z,15.40
2024-05-09T09:09:05.999Z,13.95
2024-05-09T09:10:04.077Z,13.81
2024-05-09T09:11:02.986Z,13.63
2024-05-09T09:12:00.797Z,13.95
2024-05-09T09:13:03.848Z,14.34
2024-05-09T09:14:00.642Z,14.19
2024-05-09T09:14:57.334Z,14.61
2024-05-09T09:15:57.917Z,14.69
2024-05-09T09:16:56.570Z,14.31
2024-05-09T09:17:58.409Z,14.68
2024-05-09T09:18:57.874Z,14.99
2024-05-09T09:19:54.782Z,14.97
2024-05-09T09:20:51.672Z,15.01
2024-05-09T09:21:48.507Z,15.37
2024-05-09T09:22:45.373Z,15.46
2024-05-09T09:23:42.055Z,15.58
2024-05-09T09:24:38.855Z,15.59
2024-05-09T09:25:35.724Z,15.88
2024-05-09T09:26:32.658Z,16.05
2024-05-09T09:27:29.556Z,15.94
2024-05-09T09:28:26.275Z,15.86
2024-05-09T09:29:22.977Z,15.71
2024-05-09T09:30:31.681Z,15.89
2024-05-09T09:31:33.620Z,15.85
2024-05-09T09:32:30.499Z,15.91
2024-05-09T09:33:31.506Z,16.16
2024-05-09T09:34:28.980Z,15.93
2024-05-09T09:35:25.849Z,15.83
2024-05-09T09:36:22.638Z,15.66
2024-05-09T09:37:23.428Z,15.79
2024-05-09T09:38:23.101Z,15.91
2024-05-09T09:39:22.944Z,15.84
2024-05-09T09:40:30.982Z,15.87
2024-05-09T09:41:30.668Z,15.78
2024-05-09T09:42:31.694Z,15.98
2024-05-09T09:43:28.683Z,15.92
2024-05-09T09:44:29.604Z,15.87
2024-05-09T09:45:28.589Z,15.75
2024-05-09T09:46:27.642Z,15.43
2024-05-09T09:47:27.259Z,15.58
2024-05-09T09:48:24.964Z,15.82
2024-05-09T09:49:24.160Z,16.11
2024-05-09T09:50:27.891Z,16.28
2024-05-09T09:51:31.693Z,16.16
2024-05-09T09:52:28.807Z,16.33
2024-05-09T09:53:28.137Z,16.25
2024-05-09T09:54:25.042Z,16.33
2024-05-09T09:55:25.882Z,15.89
2024-05-09T09:56:23.882Z,15.60
2024-05-09T09:57:21.589Z,15.99
2024-05-09T09:58:18.432Z,15.58
2024-05-09T09:59:15.889Z,15.46
2024-05-09T10:00:17.326Z,14.44
2024-05-09T10:01:17.626Z,13.99
2024-05-09T10:02:14.717Z,14.01
2024-05-09T10:03:11.706Z,14.32
2024-05-09T10:04:10.020Z,14.00
2024-05-09T10:05:07.892Z,13.69
2024-05-09T10:06:06.936Z,13.73
2024-05-09T10:07:08.612Z,13.34
2024-05-09T10:08:07.544Z,13.47
2024-05-09T10:09:04.391Z,13.47
2024-05-09T10:10:01.173Z,13.49
2024-05-09T10:10:58.143Z,13.63
2024-05-09T10:11:59.958Z,13.42
2024-05-09T10:13:01.205Z,13.52
2024-05-09T10:13:58.153Z,13.39
2024-05-09T10:14:54.918Z,13.47
2024-05-09T10:15:53.634Z,13.35
2024-05-09T10:16:50.677Z,13.32
2024-05-09T10:17:51.314Z,13.40
2024-05-09T10:18:48.364Z,13.35
2024-05-09T10:19:45.311Z,13.36
2024-05-09T10:20:42.608Z,13.59
2024-05-09T10:21:46.861Z,13.57
2024-05-09T10:22:50.494Z,13.98
2024-05-09T10:24:02.305Z,13.64
2024-05-09T10:25:05.774Z,13.60
2024-05-09T10:26:05.645Z,13.77
2024-05-09T10:27:04.358Z,13.46
2024-05-09T10:28:03.157Z,13.43
2024-05-09T10:29:02.645Z,13.68
2024-05-09T10:30:01.485Z,13.40
2024-05-09T10:31:07.204Z,13.44
2024-05-09T10:32:04.603Z,13.64
2024-05-09T10:33:01.365Z,13.62
2024-05-09T10:34:00.394Z,13.46
2024-05-09T10:35:07.695Z,13.82
2024-05-09T10:36:10.967Z,13.82
2024-05-09T10:37:07.868Z,13.83
2024-05-09T10:38:08.587Z,13.70
2024-05-09T10:39:05.495Z,13.47
2024-05-09T10:40:05.360Z,13.59
2024-05-09T10:41:04.868Z,13.63
2024-05-09T10:42:01.781Z,13.61
2024-05-09T10:43:02.582Z,13.50
2024-05-09T10:44:01.239Z,13.51
2024-05-09T10:44:59.042Z,13.70
2024-05-09T10:45:55.881Z,13.79
2024-05-09T10:46:54.891Z,13.70
2024-05-09T10:47:52.035Z,13.74
2024-05-09T10:48:49.251Z,13.88
2024-05-09T10:49:46.701Z,13.63
2024-05-09T10:50:45.948Z,13.77
2024-05-09T10:51:44.671Z,13.84
2024-05-09T10:52:41.430Z,13.77
2024-05-09T10:53:45.590Z,13.68
2024-05-09T10:54:42.317Z,13.83
2024-05-09T10:55:39.059Z,14.09
2024-05-09T10:56:35.810Z,14.02
2024-05-09T10:57:38.906Z,13.96
2024-05-09T10:58:35.648Z,13.95
2024-05-09T10:59:39.737Z,14.48
2024-05-09T11:00:37.726Z,14.11
2024-05-09T11:01:35.492Z,14.22
2024-05-09T11:02:32.442Z,13.88
2024-05-09T11:03:29.494Z,14.13
2024-05-09T11:04:27.784Z,13.79
2024-05-09T11:05:24.791Z,14.21
2024-05-09T11:06:21.678Z,14.24
2024-05-09T11:07:21.600Z,14.07
2024-05-09T11:08:23.084Z,13.95
2024-05-09T11:09:19.857Z,14.63
2024-05-09T11:10:24.401Z,14.11
2024-05-09T11:11:24.278Z,14.00
2024-05-09T11:12:23.541Z,14.68
2024-05-09T11:13:32.062Z,14.37
2024-05-09T11:14:29.037Z,14.22
2024-05-09T11:15:26.036Z,14.36
2024-05-09T11:16:22.921Z,14.18
2024-05-09T11:17:19.779Z,14.66
2024-05-09T11:18:28.134Z,14.89
2024-05-09T11:19:34.193Z,15.10
2024-05-09T11:20:35.664Z,14.50
2024-05-09T11:21:32.579Z,14.18
2024-05-09T11:22:33.422Z,14.26
2024-05-09T11:23:30.768Z,14.06
2024-05-09T11:24:29.359Z,14.31
2024-05-09T11:25:26.772Z,14.41
2024-05-09T11:26:25.423Z,14.47
2024-05-09T11:27:23.637Z,14.67
2024-05-09T11:28:21.577Z,14.85
2024-05-09T11:29:19.740Z,15.00
2024-05-09T11:30:26.689Z,14.84
2024-05-09T11:31:28.522Z,15.06
2024-05-09T11:32:29.942Z,14.58
2024-05-09T11:33:26.850Z,14.51
2024-05-09T11:34:23.741Z,14.77
2024-05-09T11:35:21.046Z,14.51
2024-05-09T11:36:17.882Z,14.78
2024-05-09T11:37:14.777Z,14.23
2024-05-09T11:38:12.131Z,14.46
2024-05-09T11:39:09.128Z,14.25
2024-05-09T11:40:11.470Z,14.64
2024-05-09T11:41:17.218Z,14.83
2024-05-09T11:42:14.386Z,14.45
2024-05-09T11:43:11.177Z,14.57
2024-05-09T11:44:07.964Z,14.53
2024-05-09T11:45:04.966Z,14.28
2024-05-09T11:46:03.604Z,14.67
2024-05-09T11:47:00.975Z,15.13
2024-05-09T11:47:57.820Z,15.23
2024-05-09T11:48:55.006Z,15.15
2024-05-09T11:49:52.919Z,15.12
2024-05-09T11:50:49.707Z,15.51
2024-05-09T11:51:46.520Z,15.16
2024-05-09T11:52:43.247Z,14.47
2024-05-09T11:53:39.946Z,14.29
2024-05-09T11:54:36.675Z,14.40
2024-05-09T11:55:36.603Z,14.36
2024-05-09T11:56:33.572Z,14.65
2024-05-09T11:57:30.376Z,14.33
2024-05-09T11:58:28.466Z,14.08
2024-05-09T11:59:25.255Z,14.57
2024-05-09T12:00:29.560Z,14.67
2024-05-09T12:01:33.270Z,14.63
2024-05-09T12:02:30.106Z,14.51
2024-05-09T12:03:27.054Z,14.47
2024-05-09T12:04:24.044Z,14.46
2024-05-09T12:05:21.107Z,14.61
2024-05-09T12:06:18.107Z,14.26
2024-05-09T12:07:15.034Z,14.45
2024-05-09T12:08:12.372Z,14.81
2024-05-09T12:09:09.262Z,14.22
2024-05-09T12:10:11.879Z,14.36
2024-05-09T12:11:13.942Z,14.27
2024-05-09T12:12:10.750Z,14.56
2024-05-09T12:13:07.886Z,14.36
2024-05-09T12:14:04.750Z,14.77
2024-05-09T12:15:01.479Z,15.07
2024-05-09T12:15:58.491Z,14.72
2024-05-09T12:16:55.253Z,14.88
2024-05-09T12:17:52.078Z,15.03
2024-05-09T12:18:48.996Z,14.99
2024-05-09T12:19:45.868Z,14.89
2024-05-09T12:20:42.975Z,14.83
2024-05-09T12:21:39.767Z,14.80
2024-05-09T12:22:36.465Z,14.85
2024-05-09T12:23:33.144Z,14.75
2024-05-09T12:24:30.657Z,14.51
2024-05-09T12:25:27.372Z,14.41
2024-05-09T12:26:24.153Z,15.01
2024-05-09T12:27:20.923Z,15.11
2024-05-09T12:28:18.062Z,15.31
2024-05-09T12:29:14.941Z,15.63
2024-05-09T12:30:17.226Z,15.50
2024-05-09T12:31:21.506Z,15.57
2024-05-09T12:32:18.335Z,15.10
2024-05-09T12:33:15.423Z,14.99